Weather at Platform Esther Heliport

Public forecast

Using degrees Fahrenheit for public forecast. Weather courtesy of forecast.io.

Closest aviation weather report (METAR) to Platform Esther Heliport

Closest report is Los Alamitos Army Air Field, 5.3 nm (9.8 km) NE.

2022/12/08 12:55 (retrieved 34 minutes ago)

KSLI 081255Z AUTO 00000KT 10SM CLR 05/04 A3025 RMK AO2 SLP247 T00480042

Closest aviation forecast (TAF) to Platform Esther Heliport

Forecast is more than 6 hours old.

Closest forecast is Los Alamitos Army Air Field, 5.3 nm (9.8 km) NE.

2022/12/08 05:03 (retrieved 8 hours ago)

TAF KSLI 080500Z 0805/0911 VRB06KT 9999 SKC QNH3019INS TX15/0900Z TN07/0816Z